Potash Point, Vermont
Current Conditions -  °F | °C
As of 9:55 AM on Thursday 23 Oct 2014 (Local Time) from K6B0 Reporting Station
Drizzle Drizzle  
Wind Chill:   Ceiling: 1200
Heat Index:   Visibility: 10mi
Dew Point:   Wind: 10mph
Humidity: 87%   Direction: 360°N
Pressure: 29.91"   Gusts: 18mph
Location:  44.0804°N, 73.3324°W
Report Text: K6B0 231355Z AUTO 36009G16KT 10SM -DZ OVC012 07/05 A2991 RMK AO2 T00650045
Loading
Personal Weather Stations






























Interactive Weather Map
Tropical Storm Tracking
New forecast layout! Learn more

10-Day Weather Forecast

Advertisements
Track Severe Weather on mobile